默认 日期 大小 文件数 浏览量 最新下载 xml
ha la磁力链接相关资源由用户搜索指令自动获取,结果来源于网络,本站不存储任何资料,亦不承担任何责任,请于24小时内删除,搜索到152个磁力,用时5ms。
    {"E06 La femme la plus haïe de France.mp4": 915513962}
创建时间: 2021-10-09 16:16:35 大小:873.1 MB 文件数量:1 热度:18 最近下载:2025-09-20 05:26:04
    {"La morte ha sirriso all'assassino (1973).avi": 1461315584, "La morte ha sirriso all'assassino (1973).srt": 28727, "''La morte ha sirriso all'assassino''(1973)-01.jpg": 536215, "''La morte ha sirriso all'assassino''(1973)-02.jpg": 49220}
创建时间: 2021-11-16 13:30:17 大小:1.36 GB 文件数量:4 热度:3 最近下载:2025-01-25 05:22:03
    {"VIDEO_TS.BUP": 18432, "VIDEO_TS.IFO": 18432, "VIDEO_TS.VOB": 4681728, "VTS_01_0.BUP": 73728, "VTS_01_0.IFO": 73728, "VTS_01_0.VOB": 272924672, "VTS_01_1.VOB": 1073739776, "VTS_01_2.VOB": 1073739776, "VTS_01_3.VOB": 1073739776, "VTS_01_4.VOB": 1073739776, ...
创建时间: 2021-11-21 05:40:45 大小:7.04 GB 文件数量:21 热度:5 最近下载:2025-04-08 12:34:01
    {"3ciento - Chi l'ha duro... la vince! - Meet the Spartans (2008) ... ": 1867554493, "3ciento - Chi l'ha duro... la vince! - Meet the Spartans (2008 ... ": 1124, "3ciento - Chi l'ha duro... la vince! - Meet the Spartans (2008 ...
创建时间: 2021-12-17 08:55:17 大小:1.74 GB 文件数量:3 热度:6 最近下载:2025-08-06 13:36:06
    {"Attraction.la.guerra.ha.comenzad.1080p-dual-lat.mp4": 2394152737, "Descargar Películas, Series y Animes Gratis....url": 50}
创建时间: 2022-01-29 10:00:00 大小:2.23 GB 文件数量:2 热度:4 最近下载:2025-02-06 02:16:01
    {"Attraction.la.guerra.ha.comenzad.1080p-dual-lat.mp4": 2394152737, "Descargar Películas, Series y Animes Gratis....url": 50}
创建时间: 2022-02-14 19:30:09 大小:2.23 GB 文件数量:2 热度:5 最近下载:2025-03-23 10:57:04
    ... ": 12252872, "07. Scirocco - Neppure la pioggia ha mani così piccole.flac": 20596234 ...
创建时间: 2022-02-26 12:31:42 大小:145.66 MB 文件数量:12 热度:9 最近下载:2025-09-18 18:48:07
    {"Importante Leeme!.vbs": 213, "Descargar Películas, Series y Animes...url": 50, "Attraction.La.guerra.ha.comenzado.2017.1080p-dual-lat.mkv": 3810082468}
创建时间: 2022-03-22 10:34:11 大小:3.55 GB 文件数量:3 热度:3 最近下载:2025-01-10 16:58:09
    {"La.Padrina.Parigi.Ha.Una.Nuova.Regina.2020.WEB-DL.1080p.AC3.ITA.FRE.SUB.mkv": 8329174074}
创建时间: 2022-03-27 12:17:41 大小:7.76 GB 文件数量:1 热度:10 最近下载:2025-05-05 18:10:01
    {"Importante Leeme!.vbs": 213, "Descargar Películas, Series y Animes...url": 50, "Attraction.La.guerra.ha.comenzado.2017.720p-dual-lat.mkv": 1882640535}
创建时间: 2022-03-28 07:48:49 大小:1.75 GB 文件数量:3 热度:3 最近下载:2025-01-10 16:56:04
    {"La.Padrina.Parigi.Ha.Una.Nuova.Regina.2020.iTALiAN.DVDRiP.XviD-PRiME.avi": 1517367296}
创建时间: 2022-03-30 06:39:37 大小:1.41 GB 文件数量:1 热度:6 最近下载:2025-01-24 11:03:02
    {"Importante Leeme!.vbs": 213, "Descargar Películas, Series y Animes...url": 50, "Attraction.La.guerra.ha.comenzado.2017.DVDrip-lat.avi": 904476109}
创建时间: 2022-05-25 20:46:11 大小:862.58 MB 文件数量:3 热度:3 最近下载:2025-01-06 16:51:07
    {"Extra": {"I piaceri della Carmen.mkv": 495363030}, "La signora ha fatto il pieno (1977) SD H264.mkv": 1403376951}
创建时间: 2022-06-05 12:58:21 大小:1.77 GB 文件数量:2 热度:3 最近下载:2025-01-04 15:49:13
    {"1.jpg": 186077, "La Course au Sexe-1.jpg": 87973, "La Course au Sexe-2.jpg": 171391, "���ĺ���ԭ��.txt": 1428, "ϣ��@wu.ha.free.fr@���� La Course au Sexe.avi": 672200704}
创建时间: 2022-07-05 22:08:56 大小:641.49 MB 文件数量:5 热度:9 最近下载:2025-02-17 22:51:02
    {"p1.jpg": 64748, "p2.jpg": 68783, "p3.jpg": 184014, "���ĺ���ԭ��.txt": 1180, "��С��@wu.ha.free.fr@La rabatteuse.avi": 729450496}
创建时间: 2022-07-06 14:33:31 大小:695.96 MB 文件数量:5 热度:6 最近下载:2025-01-09 10:52:03
    {"1.jpg": 197559, "la-pensionnaire-back.jpg": 30365, "la-pensionnaire-front.jpg": 24365, "���ĺ���ԭ��.txt": 1428, "���Ƕ���@wu.ha.free.fr@С��ϵ��La Pensionnaire.avi": 604354560}
创建时间: 2022-07-12 18:11:04 大小:576.6 MB 文件数量:5 热度:8 最近下载:2025-01-02 07:38:05
    {"Häxan - La stregoneria attraverso i secoli (1922).mkv": 7425552840}
创建时间: 2022-07-23 23:52:57 大小:6.92 GB 文件数量:1 热度:8 最近下载:2025-04-08 12:35:03
    ... le digas a mama que la canguro ha muerto (1991).part1.rar ... le digas a mama que la canguro ha muerto (1991).part2.rar ... le digas a mama que la canguro ha muerto (1991).part3.rar ... le digas a mama que la canguro ha muerto (1991).part4.rar ...
创建时间: 2022-08-10 18:36:08 大小:3.05 GB 文件数量:4 热度:5 最近下载:2025-02-24 00:50:03
    {"La Femme en Noir-p1.jpg": 71734, "La Femme en Noir-p2.jpg": 66817, "La Femme en Noir-p3.jpg": 192454, "���ĺ���ԭ��.txt": 1727, "��С��@wu.ha.free.fr@La Femme en Noir.rmvb": 400228044}
创建时间: 2022-09-17 17:52:33 大小:382 MB 文件数量:5 热度:4 最近下载:2025-03-18 05:55:01
    {"La legge del menga, Chi l'ha in culo se lo TENGA.mp4": 596798897, "1676 La legge del menga Chi l'ha in culo se lo TENGA.jpg": 351603, "La legge del menga, Chi l'ha in culo se lo TENGA.mp4_thumbs_[2022.09.06_01.43.44].jpg": 1489109}
创建时间: 2022-09-19 23:37:13 大小:570.91 MB 文件数量:3 热度:7 最近下载:2025-09-20 22:14:02